Time;durP1;ratioP1;P1;durP2;ratioP2;P2;SDS_P1;SDS_P2;PMS_P1;PMS_P2;Temp;Humidity;BMP_temperature;BMP_pressure;BME280_temperature;BME280_humidity;BME280_pressure;Samples;Min_cycle;Max_cycle;Signal;HPM_P1;HPM_P2
2023/08/04 00:02:16;;;;;;;9.90;4.60;;;;;;;15.52;100.00;99907.94;7781756;22;20016;-96
2023/08/04 00:05:17;;;;;;;10.40;4.47;;;;;;;15.55;100.00;99912.81;7752799;22;20475;-95
2023/08/04 00:08:20;;;;;;;9.40;4.57;;;;;;;15.58;100.00;99909.09;7728471;22;20410;-95
2023/08/04 00:11:22;;;;;;;9.20;4.25;;;;;;;15.55;100.00;99898.97;7752674;22;20032;-95
2023/08/04 00:14:25;;;;;;;9.88;4.13;;;;;;;15.49;100.00;99909.09;7792292;22;20027;-95
2023/08/04 00:17:27;;;;;;;12.20;4.22;;;;;;;15.46;100.00;99906.84;7780931;22;20069;-95
2023/08/04 00:20:29;;;;;;;10.77;4.00;;;;;;;15.45;100.00;99907.00;7751734;22;20102;-94
2023/08/04 00:23:31;;;;;;;5.97;3.70;;;;;;;15.40;100.00;99910.13;7782816;22;20090;-95
2023/08/04 00:26:33;;;;;;;12.10;4.05;;;;;;;15.34;100.00;99907.38;7751616;22;20026;-96
2023/08/04 00:29:35;;;;;;;9.30;4.22;;;;;;;15.34;100.00;99912.56;7779188;22;20493;-95
2023/08/04 00:32:37;;;;;;;13.18;3.75;;;;;;;15.29;100.00;99919.09;7754743;22;20020;-96
2023/08/04 00:35:40;;;;;;;8.38;3.85;;;;;;;15.29;100.00;99932.13;7779708;22;20450;-96
2023/08/04 00:38:42;;;;;;;9.23;3.63;;;;;;;15.33;100.00;99937.00;7755324;22;20102;-96
2023/08/04 00:41:44;;;;;;;8.90;3.67;;;;;;;15.37;100.00;99933.09;7753129;22;20626;-94
2023/08/04 00:44:48;;;;;;;8.98;3.42;;;;;;;15.34;100.00;99941.28;7754183;22;20024;-95
2023/08/04 00:47:52;;;;;;;8.48;3.28;;;;;;;15.39;100.00;99944.19;7750462;22;20343;-96
2023/08/04 00:50:54;;;;;;;12.10;3.78;;;;;;;15.39;100.00;99944.19;7759630;22;20019;-95
2023/08/04 00:53:57;;;;;;;7.20;3.53;;;;;;;15.41;100.00;99947.44;7752100;22;20049;-95
2023/08/04 00:56:59;;;;;;;7.15;3.55;;;;;;;15.41;100.00;99952.66;7758464;22;20027;-95
2023/08/04 01:00:02;;;;;;;12.02;3.75;;;;;;;15.45;100.00;99943.50;7781397;22;20105;-94
2023/08/04 01:03:05;;;;;;;8.15;3.30;;;;;;;15.42;100.00;99939.44;7755246;22;20127;-94
2023/08/04 01:06:38;;;;;;;12.57;3.47;;;;;;;15.31;100.00;99947.63;7762377;22;20038;-95
2023/08/04 01:10:07;;;;;;;9.18;3.75;;;;;;;15.20;100.00;99940.13;7755110;22;20563;-95
2023/08/04 01:13:13;;;;;;;8.23;3.40;;;;;;;15.15;100.00;99956.28;7732987;22;20027;-96
2023/08/04 01:16:18;;;;;;;9.93;3.78;;;;;;;15.10;100.00;99957.75;7755093;22;20020;-96
2023/08/04 01:19:20;;;;;;;9.23;3.72;;;;;;;15.00;100.00;99963.94;7784037;22;20027;-96
2023/08/04 01:22:24;;;;;;;5.80;3.63;;;;;;;14.92;100.00;99960.53;7753470;22;20549;-95
2023/08/04 01:25:44;;;;;;;10.65;3.20;;;;;;;14.85;100.00;99962.97;7754145;22;20016;-95
2023/08/04 01:28:49;;;;;;;9.18;3.50;;;;;;;14.79;100.00;99966.25;7779972;22;20535;-95
2023/08/04 01:31:51;;;;;;;12.25;3.90;;;;;;;14.70;100.00;99967.19;7728059;22;20170;-95
2023/08/04 01:34:55;;;;;;;11.13;4.00;;;;;;;14.58;100.00;99971.91;7780037;22;20023;-95
2023/08/04 01:37:57;;;;;;;10.20;3.60;;;;;;;14.48;100.00;99982.44;7755140;22;20146;-96
2023/08/04 01:40:59;;;;;;;10.45;4.10;;;;;;;14.43;100.00;99992.50;7752791;22;20031;-96
2023/08/04 01:44:01;;;;;;;9.75;3.78;;;;;;;14.38;100.00;99998.22;7753113;22;20026;-96
2023/08/04 01:47:07;;;;;;;8.15;3.72;;;;;;;14.35;100.00;99998.53;7756417;22;20023;-96
2023/08/04 01:50:09;;;;;;;9.68;3.78;;;;;;;14.33;100.00;99997.84;7755569;22;20461;-93
2023/08/04 01:53:11;;;;;;;9.88;3.85;;;;;;;14.20;100.00;100003.53;7753521;22;20028;-95
2023/08/04 01:56:13;;;;;;;10.27;3.80;;;;;;;14.16;100.00;100009.19;7753198;22;20028;-96
2023/08/04 01:59:16;;;;;;;15.50;4.43;;;;;;;14.18;100.00;100010.66;7755354;22;20465;-94
2023/08/04 02:02:17;;;;;;;11.18;3.65;;;;;;;14.22;100.00;100019.00;7752976;22;20030;-94
2023/08/04 02:05:19;;;;;;;8.82;3.97;;;;;;;14.19;100.00;100022.72;7780593;22;20019;-95
2023/08/04 02:08:24;;;;;;;17.33;4.45;;;;;;;14.11;100.00;100027.91;7779477;22;20016;-94
2023/08/04 02:11:26;;;;;;;10.40;3.58;;;;;;;14.07;100.00;100036.19;7778884;22;20503;-96
2023/08/04 02:14:28;;;;;;;13.90;3.92;;;;;;;14.03;100.00;100040.06;7752110;22;20026;-95
2023/08/04 02:17:30;;;;;;;14.68;4.28;;;;;;;14.03;100.00;100045.25;7751683;22;20025;-94
2023/08/04 02:20:32;;;;;;;10.95;3.45;;;;;;;14.09;100.00;100055.06;7751800;22;20461;-95
2023/08/04 02:23:34;;;;;;;10.10;3.55;;;;;;;14.06;100.00;100052.75;7752508;22;20023;-95
2023/08/04 02:26:35;;;;;;;19.80;4.20;;;;;;;14.06;100.00;100063.16;7778273;22;20039;-95
2023/08/04 02:29:38;;;;;;;7.07;4.03;;;;;;;13.99;100.00;100069.00;7779388;22;20030;-95
2023/08/04 02:32:40;;;;;;;12.13;4.55;;;;;;;14.05;100.00;100070.16;7752157;22;20106;-94
2023/08/04 02:35:42;;;;;;;12.57;4.15;;;;;;;14.10;100.00;100074.91;7751810;22;20023;-94
2023/08/04 02:38:45;;;;;;;11.80;4.43;;;;;;;14.24;100.00;100076.13;7779533;22;20022;-95
2023/08/04 02:41:47;;;;;;;14.32;3.88;;;;;;;14.33;100.00;100077.75;7751180;22;20024;-95
2023/08/04 02:44:54;;;;;;;5.40;3.47;;;;;;;14.37;100.00;100077.28;7779151;22;20015;-95
2023/08/04 02:47:55;;;;;;;10.73;3.70;;;;;;;14.39;100.00;100072.75;7774152;22;20046;-94
2023/08/04 02:51:12;;;;;;;12.55;3.70;;;;;;;14.42;100.00;100076.84;7775887;22;20315;-94
2023/08/04 02:54:14;;;;;;;14.77;3.90;;;;;;;14.49;100.00;100069.22;7723690;22;20118;-94
2023/08/04 02:57:16;;;;;;;5.57;3.50;;;;;;;14.46;100.00;100059.09;7746415;22;20045;-94
2023/08/04 03:00:21;;;;;;;9.55;3.65;;;;;;;14.44;100.00;100060.06;7748408;22;20454;-95
2023/08/04 03:03:26;;;;;;;7.40;3.10;;;;;;;14.36;100.00;100056.59;7747952;22;20027;-95
2023/08/04 03:06:28;;;;;;;6.50;3.40;;;;;;;14.28;100.00;100070.41;7776040;22;20015;-94
2023/08/04 03:09:32;;;;;;;8.02;2.83;;;;;;;14.20;100.00;100071.19;7777062;22;20611;-95
2023/08/04 03:12:34;;;;;;;8.27;3.22;;;;;;;14.14;100.00;100074.44;7779681;22;20306;-96
2023/08/04 03:15:37;;;;;;;7.80;3.25;;;;;;;14.07;100.00;100083.03;7777531;22;20092;-94
2023/08/04 03:18:38;;;;;;;8.25;3.40;;;;;;;13.99;100.00;100081.19;7753130;22;20020;-95
2023/08/04 03:21:40;;;;;;;4.40;2.75;;;;;;;14.00;100.00;100083.63;7782485;22;20034;-96
2023/08/04 03:24:42;;;;;;;11.25;3.40;;;;;;;14.01;100.00;100097.44;7781558;22;20023;-96
2023/08/04 03:27:44;;;;;;;10.07;3.20;;;;;;;14.04;100.00;100091.16;7753704;22;20015;-95
2023/08/04 03:30:46;;;;;;;9.45;3.03;;;;;;;14.09;100.00;100102.72;7779415;22;20026;-95
2023/08/04 03:33:48;;;;;;;7.72;2.83;;;;;;;14.22;100.00;100095.28;7778576;22;20055;-96
2023/08/04 03:36:49;;;;;;;10.02;2.70;;;;;;;14.22;100.00;100102.28;7779232;22;20516;-94
2023/08/04 03:39:51;;;;;;;9.70;3.05;;;;;;;14.30;100.00;100104.94;7778112;22;20361;-96
2023/08/04 03:42:53;;;;;;;8.35;3.15;;;;;;;14.37;100.00;100108.53;7751522;22;20027;-94
2023/08/04 03:45:55;;;;;;;10.20;2.85;;;;;;;14.39;100.00;100111.81;7779024;22;20614;-95
2023/08/04 03:48:57;;;;;;;7.90;2.67;;;;;;;14.39;100.00;100114.41;7751860;22;20043;-96
2023/08/04 03:51:59;;;;;;;6.00;2.92;;;;;;;14.50;100.00;100123.72;7725431;22;20165;-94
2023/08/04 03:55:01;;;;;;;16.83;3.63;;;;;;;14.51;100.00;100117.56;7778724;22;20019;-95
2023/08/04 03:58:03;;;;;;;7.40;2.75;;;;;;;14.59;100.00;100109.81;7778991;22;20019;-95
2023/08/04 04:01:04;;;;;;;5.07;2.50;;;;;;;14.63;100.00;100116.34;7778352;22;20019;-95
2023/08/04 04:04:06;;;;;;;6.03;2.63;;;;;;;14.63;100.00;100118.09;7750757;22;20095;-94
2023/08/04 04:07:08;;;;;;;8.27;2.97;;;;;;;14.65;100.00;100116.16;7779255;22;20122;-95
2023/08/04 04:10:10;;;;;;;7.43;2.95;;;;;;;14.67;100.00;100114.22;7778394;22;20020;-96
2023/08/04 04:13:12;;;;;;;8.75;2.65;;;;;;;14.73;100.00;100110.16;7778554;22;20023;-94
2023/08/04 04:16:14;;;;;;;3.95;2.20;;;;;;;14.68;100.00;100115.84;7779308;22;20047;-96
2023/08/04 04:19:16;;;;;;;7.55;2.45;;;;;;;14.71;100.00;100120.75;7775593;22;20449;-96
2023/08/04 04:22:18;;;;;;;6.13;2.78;;;;;;;14.79;100.00;100128.59;7750815;22;20020;-96
2023/08/04 04:25:20;;;;;;;8.50;2.97;;;;;;;14.83;100.00;100129.09;7750950;22;20030;-96
2023/08/04 04:28:22;;;;;;;8.75;3.13;;;;;;;14.82;100.00;100128.28;7776858;22;20021;-96
2023/08/04 04:31:24;;;;;;;6.50;2.80;;;;;;;14.87;100.00;100130.41;7777320;22;20341;-95
2023/08/04 04:34:26;;;;;;;8.23;2.88;;;;;;;14.88;100.00;100133.81;7776900;22;20020;-96
2023/08/04 04:37:28;;;;;;;8.82;2.90;;;;;;;14.96;100.00;100131.25;7776551;22;20061;-96
2023/08/04 04:40:30;;;;;;;7.82;2.60;;;;;;;15.07;100.00;100121.31;7778567;22;20015;-96
2023/08/04 04:43:32;;;;;;;4.60;2.60;;;;;;;15.08;100.00;100119.56;7749138;22;20019;-96
2023/08/04 04:46:35;;;;;;;8.75;2.60;;;;;;;15.19;100.00;100119.22;7778224;22;20543;-96
2023/08/04 04:49:37;;;;;;;6.53;3.10;;;;;;;15.27;100.00;100119.22;7777893;22;20043;-96
2023/08/04 04:52:38;;;;;;;7.80;3.35;;;;;;;15.44;100.00;100125.28;7778540;22;20026;-96
2023/08/04 04:55:41;;;;;;;5.68;3.15;;;;;;;15.54;100.00;100126.91;7726813;22;20024;-96
2023/08/04 04:58:43;;;;;;;9.30;3.17;;;;;;;15.63;100.00;100118.13;7756463;22;20012;-96
2023/08/04 05:01:45;;;;;;;10.20;3.53;;;;;;;15.64;100.00;100115.31;7731669;22;20377;-96
2023/08/04 05:04:51;;;;;;;5.35;3.30;;;;;;;15.60;100.00;100124.47;7785357;22;20020;-96
2023/08/04 05:07:54;;;;;;;7.65;3.30;;;;;;;15.60;100.00;100134.06;7758798;22;20031;-96
2023/08/04 05:10:56;;;;;;;8.32;3.28;;;;;;;15.50;100.00;100131.63;7794370;22;20091;-96
2023/08/04 05:13:58;;;;;;;8.35;3.30;;;;;;;15.46;100.00;100135.56;7788567;22;20026;-96
2023/08/04 05:17:08;;;;;;;7.43;3.28;;;;;;;15.52;100.00;100132.28;7778663;22;20383;-96
2023/08/04 05:20:14;;;;;;;5.93;2.40;;;;;;;15.52;100.00;100127.06;7807854;22;20015;-96
2023/08/04 05:23:22;;;;;;;6.47;3.00;;;;;;;15.57;100.00;100130.00;7782569;22;20047;-96
2023/08/04 05:26:29;;;;;;;10.98;3.40;;;;;;;15.61;100.00;100126.09;7775338;22;20476;-96
2023/08/04 05:29:32;;;;;;;4.85;2.88;;;;;;;15.67;100.00;100122.81;7769020;22;20050;-96
2023/08/04 05:32:35;;;;;;;8.30;2.92;;;;;;;15.82;100.00;100125.59;7762188;22;20042;-95
2023/08/04 05:35:43;;;;;;;7.18;3.08;;;;;;;15.82;100.00;100117.78;7793729;22;20016;-96
2023/08/04 05:38:48;;;;;;;6.65;3.22;;;;;;;15.92;100.00;100128.88;7799280;22;20020;-95
2023/08/04 05:41:51;;;;;;;8.25;3.20;;;;;;;15.93;100.00;100129.69;7768021;22;20023;-95
2023/08/04 05:44:53;;;;;;;5.85;3.03;;;;;;;15.97;100.00;100136.19;7790187;22;20019;-95
2023/08/04 05:47:58;;;;;;;6.88;3.05;;;;;;;15.89;100.00;100133.59;7775122;22;20027;-96
2023/08/04 05:51:00;;;;;;;5.72;3.42;;;;;;;15.90;100.00;100135.25;7779824;22;20034;-96
2023/08/04 05:54:04;;;;;;;6.45;3.20;;;;;;;15.92;100.00;100143.72;7801440;22;20352;-96
2023/08/04 05:57:06;;;;;;;8.13;4.07;;;;;;;15.94;100.00;100144.38;7771379;22;20012;-96
2023/08/04 06:00:09;;;;;;;6.50;3.58;;;;;;;15.97;100.00;100149.25;7773301;22;20118;-96
2023/08/04 06:03:11;;;;;;;6.45;3.30;;;;;;;16.04;100.00;100145.00;7785609;22;20015;-96
2023/08/04 06:06:13;;;;;;;7.20;3.35;;;;;;;16.17;100.00;100147.09;7736288;22;20024;-95
2023/08/04 06:09:15;;;;;;;7.63;3.83;;;;;;;16.30;100.00;100143.97;7734025;22;20036;-96
2023/08/04 06:12:17;;;;;;;8.55;4.07;;;;;;;16.48;100.00;100138.53;7759412;22;20106;-96
2023/08/04 06:15:21;;;;;;;8.98;4.68;;;;;;;16.74;100.00;100144.31;7792131;22;20015;-96
2023/08/04 06:18:23;;;;;;;8.27;3.92;;;;;;;16.96;100.00;100136.69;7756738;22;20022;-96
2023/08/04 06:21:29;;;;;;;8.70;3.72;;;;;;;17.12;100.00;100143.63;7788447;22;20023;-96
2023/08/04 06:24:31;;;;;;;5.40;3.50;;;;;;;17.26;100.00;100148.09;7757854;22;20350;-95
2023/08/04 06:27:34;;;;;;;7.43;3.65;;;;;;;17.35;100.00;100139.22;7754416;22;20020;-95
2023/08/04 06:30:36;;;;;;;8.52;3.30;;;;;;;17.45;100.00;100138.97;7787794;22;20078;-95
2023/08/04 06:33:38;;;;;;;5.32;2.90;;;;;;;17.55;100.00;100138.75;7787157;22;20023;-96
2023/08/04 06:36:40;;;;;;;5.50;2.60;;;;;;;17.64;100.00;100140.31;7755839;22;20020;-96
2023/08/04 06:39:42;;;;;;;9.32;3.13;;;;;;;17.72;100.00;100142.84;7783072;22;20114;-96
2023/08/04 06:42:45;;;;;;;6.20;3.00;;;;;;;17.77;100.00;100140.50;7736646;22;20026;-96
2023/08/04 06:45:47;;;;;;;4.20;2.67;;;;;;;17.81;100.00;100148.84;7783109;22;20020;-96
2023/08/04 06:48:49;;;;;;;4.57;2.42;;;;;;;17.75;100.00;100146.91;7762017;22;20019;-96
2023/08/04 06:51:51;;;;;;;8.15;2.70;;;;;;;17.68;100.00;100148.59;7770570;22;20019;-96
2023/08/04 06:54:54;;;;;;;5.40;2.28;;;;;;;17.63;100.00;100154.38;7782783;22;20054;-96
2023/08/04 06:57:56;;;;;;;6.85;2.60;;;;;;;17.58;100.00;100165.38;7777384;22;20019;-96
2023/08/04 07:00:58;;;;;;;7.22;2.88;;;;;;;17.55;100.00;100170.97;7780536;22;20024;-96
2023/08/04 07:04:08;;;;;;;3.10;2.40;;;;;;;17.76;100.00;100164.25;7789142;22;20015;-96
2023/08/04 07:07:15;;;;;;;4.18;2.40;;;;;;;18.04;100.00;100161.91;7759782;22;20437;-96
2023/08/04 07:10:18;;;;;;;6.10;2.40;;;;;;;18.24;100.00;100170.84;7783191;22;20341;-96
2023/08/04 07:13:20;;;;;;;5.70;2.53;;;;;;;18.37;100.00;100166.81;7789597;22;20442;-96
2023/08/04 07:16:24;;;;;;;6.60;2.67;;;;;;;18.38;100.00;100168.41;7786606;22;20015;-96
2023/08/04 07:19:26;;;;;;;3.97;2.10;;;;;;;18.42;100.00;100180.97;7792598;22;20012;-96
2023/08/04 07:22:37;;;;;;;4.53;2.10;;;;;;;18.33;100.00;100176.00;7792281;22;20046;-96
2023/08/04 07:25:55;;;;;;;6.25;2.13;;;;;;;18.38;100.00;100189.38;7794656;22;20024;-96
2023/08/04 07:29:01;;;;;;;4.70;2.30;;;;;;;18.33;100.00;100184.66;7797168;22;20019;-96
2023/08/04 07:32:04;;;;;;;6.95;2.45;;;;;;;18.35;100.00;100187.13;7795194;22;20045;-96
2023/08/04 07:35:07;;;;;;;5.28;2.35;;;;;;;18.41;100.00;100195.09;7765663;22;20019;-95
2023/08/04 07:38:12;;;;;;;5.57;2.33;;;;;;;18.43;100.00;100190.50;7779936;22;20023;-96
2023/08/04 07:41:19;;;;;;;4.32;2.33;;;;;;;18.47;100.00;100198.78;7774212;22;20062;-96
2023/08/04 07:44:38;;;;;;;4.63;2.08;;;;;;;18.51;100.00;100202.69;7809597;22;20016;-96
2023/08/04 07:47:43;;;;;;;6.13;2.47;;;;;;;18.60;100.00;100198.16;7785180;22;20059;-96
2023/08/04 07:50:54;;;;;;;4.78;2.20;;;;;;;18.72;100.00;100204.56;7780920;22;20077;-96
2023/08/04 07:54:00;;;;;;;5.00;2.17;;;;;;;18.67;100.00;100207.72;7765000;22;20027;-96
2023/08/04 07:57:12;;;;;;;8.75;2.10;;;;;;;18.72;100.00;100215.84;7775079;22;20041;-97
2023/08/04 08:00:24;;;;;;;3.25;1.85;;;;;;;18.90;100.00;100218.13;7804548;22;20046;-96
2023/08/04 08:03:30;;;;;;;4.75;1.63;;;;;;;18.89;100.00;100215.69;7783973;22;20024;-96
2023/08/04 08:06:33;;;;;;;5.15;1.55;;;;;;;18.98;100.00;100225.09;7745473;22;20023;-96
2023/08/04 08:09:35;;;;;;;2.85;1.70;;;;;;;18.98;100.00;100224.28;7740968;22;20024;-96
2023/08/04 08:12:38;;;;;;;6.05;1.98;;;;;;;19.04;100.00;100223.56;7776575;22;20019;-96
2023/08/04 08:15:45;;;;;;;2.20;1.77;;;;;;;19.04;100.00;100220.94;7788252;22;20098;-95
2023/08/04 08:18:53;;;;;;;5.57;1.90;;;;;;;18.94;100.00;100226.47;7767208;22;20020;-96
2023/08/04 08:22:05;;;;;;;;;;;;;;;;;;;;;
2023/08/04 08:25:12;;;;;;;4.65;1.60;;;;;;;19.13;100.00;100225.88;7787997;22;20102;-96
2023/08/04 08:28:16;;;;;;;3.83;1.30;;;;;;;19.22;100.00;100231.81;7760443;22;20031;-96
2023/08/04 08:31:19;;;;;;;2.30;1.38;;;;;;;19.25;100.00;100233.25;7794003;22;20042;-96
2023/08/04 08:34:21;;;;;;;2.53;1.20;;;;;;;19.33;100.00;100238.41;7743602;22;20020;-96
2023/08/04 08:37:24;;;;;;;4.05;1.65;;;;;;;19.42;100.00;100239.91;7773754;22;20430;-96
2023/08/04 08:40:27;;;;;;;3.33;1.20;;;;;;;19.64;100.00;100238.13;7770872;22;20030;-96
2023/08/04 08:43:30;;;;;;;4.05;1.25;;;;;;;19.70;100.00;100252.34;7785594;22;20016;-96
2023/08/04 08:46:34;;;;;;;2.08;1.45;;;;;;;19.87;100.00;100243.19;7764233;22;20019;-96
2023/08/04 08:49:44;;;;;;;4.47;1.33;;;;;;;20.07;100.00;100255.69;7799077;22;20427;-96
2023/08/04 08:52:52;;;;;;;2.03;1.05;;;;;;;20.02;100.00;100253.63;7795385;22;20051;-96
2023/08/04 08:56:02;;;;;;;4.35;1.45;;;;;;;20.04;100.00;100250.81;7763389;22;20015;-96
2023/08/04 08:59:07;;;;;;;3.80;1.30;;;;;;;20.15;100.00;100258.19;7777182;22;20369;-96
2023/08/04 09:02:14;;;;;;;3.17;1.40;;;;;;;20.13;100.00;100252.31;7781229;22;20025;-96
2023/08/04 09:05:17;;;;;;;6.72;1.77;;;;;;;19.92;100.00;100259.19;7792325;22;20019;-96
2023/08/04 09:08:24;;;;;;;5.55;1.42;;;;;;;19.69;100.00;100263.84;7738899;22;20376;-96
2023/08/04 09:11:35;;;;;;;4.90;1.60;;;;;;;19.55;100.00;100268.94;7735566;22;20026;-94
2023/08/04 09:14:56;;;;;;;1.92;1.50;;;;;;;19.59;100.00;100266.75;7755458;22;20030;-96
2023/08/04 09:18:06;;;;;;;4.20;1.23;;;;;;;19.82;100.00;100258.72;7773957;22;20015;-96
2023/08/04 09:21:08;;;;;;;4.78;1.60;;;;;;;19.99;100.00;100259.28;7759268;22;20015;-96
2023/08/04 09:24:13;;;;;;;3.00;1.90;;;;;;;20.11;100.00;100251.69;7758389;22;20023;-96
2023/08/04 09:27:39;;;;;;;3.30;1.35;;;;;;;20.42;100.00;100253.91;7790190;22;20016;-96
2023/08/04 09:31:14;;;;;;;1.60;1.17;;;;;;;20.47;100.00;100258.59;7769904;22;20033;-96
2023/08/04 09:34:19;;;;;;;4.03;1.55;;;;;;;20.68;100.00;100260.41;7790217;22;20028;-96
2023/08/04 09:37:22;;;;;;;3.20;1.75;;;;;;;20.83;100.00;100258.44;7774171;22;20022;-96
2023/08/04 09:40:34;;;;;;;2.47;1.30;;;;;;;20.84;100.00;100258.28;7783367;22;20011;-96
2023/08/04 09:43:48;;;;;;;5.22;1.73;;;;;;;21.02;100.00;100263.00;7785010;22;20030;-96
2023/08/04 09:46:53;;;;;;;3.78;1.60;;;;;;;21.05;100.00;100265.22;7792880;22;20016;-96
2023/08/04 09:49:56;;;;;;;1.80;1.10;;;;;;;21.05;100.00;100264.44;7741165;22;20019;-96
2023/08/04 09:53:07;;;;;;;2.75;1.35;;;;;;;20.85;100.00;100265.13;7798643;22;20042;-96
2023/08/04 09:56:13;;;;;;;1.25;1.05;;;;;;;20.60;100.00;100266.63;7775345;22;20043;-96
2023/08/04 09:59:17;;;;;;;4.22;1.30;;;;;;;20.15;100.00;100266.91;7757703;22;20016;-96
2023/08/04 10:02:20;;;;;;;2.65;1.30;;;;;;;19.75;100.00;100277.06;7788944;22;20016;-96
2023/08/04 10:05:24;;;;;;;2.08;1.30;;;;;;;19.37;100.00;100266.72;7761841;22;20015;-96
2023/08/04 10:08:47;;;;;;;4.82;1.80;;;;;;;19.08;100.00;100278.09;7778645;22;20115;-96
2023/08/04 10:12:00;;;;;;;1.85;1.33;;;;;;;18.99;100.00;100281.81;7743023;22;20035;-96
2023/08/04 10:15:02;;;;;;;3.55;1.55;;;;;;;19.15;100.00;100286.88;7741523;23;20346;-96
2023/08/04 10:18:04;;;;;;;3.28;1.50;;;;;;;19.45;100.00;100292.06;7741170;23;20354;-96
2023/08/04 10:21:08;;;;;;;2.72;1.60;;;;;;;19.83;100.00;100289.25;7741772;23;20437;-96
2023/08/04 10:24:12;;;;;;;3.22;1.50;;;;;;;19.97;100.00;100288.38;7741936;23;20019;-96
2023/08/04 10:27:20;;;;;;;3.33;1.20;;;;;;;19.87;100.00;100289.69;7741791;23;20020;-96
2023/08/04 10:30:24;;;;;;;3.95;1.50;;;;;;;19.68;100.00;100285.88;7740599;23;20024;-96
2023/08/04 10:34:25;;;;;;;5.60;1.40;;;;;;;19.67;100.00;100278.94;7714255;23;20035;-96
2023/08/04 10:37:27;;;;;;;2.60;1.20;;;;;;;20.33;100.00;100276.13;7741035;23;20096;-96
2023/08/04 10:40:32;;;;;;;2.90;1.30;;;;;;;21.13;100.00;100280.03;7742567;23;20105;-96
2023/08/04 10:43:38;;;;;;;4.55;1.02;;;;;;;21.89;100.00;100284.31;7740912;23;20020;-96
2023/08/04 10:46:40;;;;;;;2.40;1.42;;;;;;;22.18;100.00;100282.28;7741066;23;20020;-96
2023/08/04 10:49:42;;;;;;;2.17;1.02;;;;;;;22.29;100.00;100289.63;7740882;23;20051;-96
2023/08/04 10:52:45;;;;;;;2.80;1.10;;;;;;;22.33;100.00;100286.41;7741440;23;20023;-96
2023/08/04 10:55:58;;;;;;;1.65;1.00;;;;;;;22.30;100.00;100286.78;7714454;23;20354;-96
2023/08/04 10:59:00;;;;;;;2.03;1.08;;;;;;;22.31;100.00;100291.06;7747685;23;20012;-96
2023/08/04 11:02:02;;;;;;;3.83;1.20;;;;;;;22.40;100.00;100289.00;7742047;23;20022;-96
2023/08/04 11:05:09;;;;;;;3.65;1.20;;;;;;;22.35;100.00;100297.53;7713962;23;20777;-96
2023/08/04 11:08:12;;;;;;;4.28;1.20;;;;;;;22.52;100.00;100299.75;7740548;23;20020;-95
2023/08/04 11:11:14;;;;;;;2.28;1.33;;;;;;;22.60;100.00;100291.63;7740407;23;20094;-96
2023/08/04 11:14:17;;;;;;;2.75;1.05;;;;;;;22.39;100.00;100311.13;7741656;23;20024;-96
2023/08/04 11:17:21;;;;;;;5.13;1.30;;;;;;;22.19;100.00;100300.56;7740663;23;20106;-96
2023/08/04 11:20:23;;;;;;;1.50;1.40;;;;;;;22.07;100.00;100304.81;7742015;23;20020;-95
2023/08/04 11:23:34;;;;;;;3.28;1.33;;;;;;;21.89;100.00;100302.78;7741139;23;20020;-96
2023/08/04 11:26:36;;;;;;;1.75;1.20;;;;;;;21.77;100.00;100304.38;7740949;23;20436;-96
2023/08/04 11:29:38;;;;;;;3.28;1.58;;;;;;;21.62;100.00;100310.63;7741067;22;20020;-96
2023/08/04 11:32:47;;;;;;;2.97;1.20;;;;;;;21.50;100.00;100302.47;7738541;23;20024;-95
2023/08/04 11:35:49;;;;;;;1.67;1.13;;;;;;;21.61;100.00;100308.97;7738609;23;20113;-96
2023/08/04 11:38:51;;;;;;;4.55;1.40;;;;;;;21.84;100.00;100310.47;7738982;23;20115;-96
2023/08/04 11:41:53;;;;;;;2.05;1.02;;;;;;;21.92;100.00;100305.81;7739633;23;20024;-96
2023/08/04 11:44:55;;;;;;;5.80;1.40;;;;;;;22.06;100.00;100311.91;7741403;23;20027;-96
2023/08/04 11:47:58;;;;;;;3.63;1.20;;;;;;;22.21;100.00;100309.13;7742392;23;20020;-96
2023/08/04 11:51:00;;;;;;;1.65;1.00;;;;;;;22.42;100.00;100305.44;7742933;23;20390;-96
2023/08/04 11:54:02;;;;;;;1.90;1.20;;;;;;;22.65;100.00;100291.00;7743181;23;20024;-96
2023/08/04 11:57:05;;;;;;;1.20;1.10;;;;;;;23.00;100.00;100296.81;7741824;23;20265;-96
2023/08/04 12:00:08;;;;;;;1.67;1.10;;;;;;;23.15;100.00;100300.00;7743425;23;20513;-96
2023/08/04 12:03:13;;;;;;;3.47;1.20;;;;;;;23.23;100.00;100301.63;7742598;23;20032;-96
2023/08/04 12:06:19;;;;;;;3.53;1.02;;;;;;;23.29;100.00;100305.25;7743250;23;20020;-96
2023/08/04 12:09:21;;;;;;;1.90;1.20;;;;;;;23.33;100.00;100306.44;7742840;23;20078;-96
2023/08/04 12:12:40;;;;;;;2.22;1.10;;;;;;;23.24;100.00;100305.88;7741681;23;20020;-96
2023/08/04 12:15:55;;;;;;;3.47;1.33;;;;;;;23.24;100.00;100305.06;7741562;23;20020;-96
2023/08/04 12:19:06;;;;;;;1.50;1.08;;;;;;;23.31;100.00;100306.66;7743142;22;20110;-96
2023/08/04 12:22:08;;;;;;;2.15;1.33;;;;;;;23.50;100.00;100317.31;7742631;23;20026;-96
2023/08/04 12:25:12;;;;;;;2.70;1.30;;;;;;;23.56;100.00;100319.13;7742502;23;20676;-96
2023/08/04 12:28:15;;;;;;;1.63;1.10;;;;;;;23.37;100.00;100308.44;7742787;23;20476;-96
2023/08/04 12:31:17;;;;;;;2.13;0.90;;;;;;;23.39;100.00;100306.41;7742334;22;20027;-95
2023/08/04 12:34:19;;;;;;;2.85;0.82;;;;;;;23.32;100.00;100316.19;7742376;23;20016;-96
2023/08/04 12:37:25;;;;;;;2.25;1.20;;;;;;;23.34;100.00;100316.78;7742711;23;20451;-96
2023/08/04 12:40:29;;;;;;;0.93;0.90;;;;;;;23.13;100.00;100311.78;7740790;23;20020;-96
2023/08/04 12:43:34;;;;;;;1.20;0.90;;;;;;;23.05;100.00;100304.91;7744154;22;20055;-96
2023/08/04 12:46:36;;;;;;;2.35;0.80;;;;;;;22.94;100.00;100311.63;7742353;23;20109;-96
2023/08/04 12:49:38;;;;;;;1.23;1.10;;;;;;;22.96;100.00;100311.44;7740135;23;20015;-96
2023/08/04 12:52:41;;;;;;;1.85;1.00;;;;;;;23.33;100.00;100311.72;7741398;23;20472;-96
2023/08/04 12:55:43;;;;;;;1.73;1.00;;;;;;;23.80;100.00;100321.06;7738899;23;20020;-96
2023/08/04 12:58:45;;;;;;;6.03;1.30;;;;;;;24.23;100.00;100317.69;7738525;23;20046;-96
2023/08/04 13:01:47;;;;;;;5.30;1.00;;;;;;;24.39;100.00;100328.75;7739849;23;20027;-96
2023/08/04 13:04:51;;;;;;;1.17;1.08;;;;;;;23.69;100.00;100337.56;7741664;23;20016;-96
2023/08/04 13:07:53;;;;;;;1.50;1.20;;;;;;;22.75;100.00;100323.03;7742163;22;20708;-96
2023/08/04 13:10:58;;;;;;;2.78;1.20;;;;;;;22.36;100.00;100327.38;7739597;23;20027;-96
2023/08/04 13:14:00;;;;;;;1.30;1.00;;;;;;;22.14;100.00;100324.91;7714422;23;20111;-96
2023/08/04 13:17:02;;;;;;;1.48;1.08;;;;;;;22.48;100.00;100324.91;7741288;23;20016;-96
2023/08/04 13:20:08;;;;;;;1.35;1.02;;;;;;;23.10;100.00;100326.22;7740282;22;20016;-96
2023/08/04 13:23:10;;;;;;;3.25;1.17;;;;;;;23.55;100.00;100323.63;7740990;23;20020;-96
2023/08/04 13:26:12;;;;;;;2.03;1.20;;;;;;;23.98;100.00;100330.09;7740236;22;20027;-96
2023/08/04 13:29:15;;;;;;;1.90;1.10;;;;;;;24.37;100.00;100330.78;7738615;23;20023;-96
2023/08/04 13:32:17;;;;;;;3.65;0.90;;;;;;;24.78;100.00;100321.50;7737849;23;20012;-96
2023/08/04 13:35:20;;;;;;;1.15;0.88;;;;;;;24.83;100.00;100321.63;7713384;23;20024;-96
2023/08/04 13:38:23;;;;;;;1.60;0.90;;;;;;;24.89;100.00;100321.56;7738640;23;20097;-96
2023/08/04 13:41:25;;;;;;;2.40;1.00;;;;;;;25.00;100.00;100327.16;7738703;23;20090;-96
2023/08/04 13:44:27;;;;;;;0.80;0.80;;;;;;;25.13;100.00;100327.81;7737941;23;20016;-96
2023/08/04 13:47:31;;;;;;;2.13;0.90;;;;;;;25.41;100.00;100328.31;7738532;23;20024;-96
2023/08/04 13:50:36;;;;;;;1.45;1.05;;;;;;;25.68;100.00;100321.63;7739657;23;20110;-96
2023/08/04 13:53:38;;;;;;;2.40;1.05;;;;;;;25.94;100.00;100328.41;7717270;23;20111;-96
2023/08/04 13:56:42;;;;;;;3.83;1.17;;;;;;;26.10;100.00;100320.81;7736806;23;20016;-96
2023/08/04 13:59:44;;;;;;;0.85;0.85;;;;;;;26.21;100.00;100320.84;7743436;23;20439;-96
2023/08/04 14:02:46;;;;;;;0.80;0.75;;;;;;;25.28;100.00;100324.00;7727799;23;20110;-96
2023/08/04 14:06:01;;;;;;;0.75;0.75;;;;;;;25.24;100.00;100318.34;7742240;23;20473;-96
2023/08/04 14:09:04;;;;;;;1.08;0.70;;;;;;;25.05;100.00;100336.06;7738997;23;20043;-96
2023/08/04 14:12:06;;;;;;;1.38;0.80;;;;;;;24.64;100.00;100334.84;7737480;23;20020;-96